Terminal Aerodrome Forecast
Issued by NWS

Home | Current Version | Previous Version | Text Only | Print | Product List | Glossary On
Versions: 1 2 3 4 5 6 7 8 9 10 11 12 13 14 15 16 17
043
FTUS41 KPHI 302337
TAFMIV
TAF
KMIV 302337Z 3100/3124 12004KT P6SM OVC050
      TEMPO 3104/3108 3SM -RA OVC015
     FM310800 10008KT 3SM -RA BR OVC015
     FM311200 09010KT 3SM RA BR OVC008
     FM311500 11010G20KT 1SM RA BR OVC008
     FM311900 11011G21KT 3/4SM +RA BR OVC008 WS020/16035KT=

USA.gov is the U.S. government's official web portal to all federal, state and local government web resources and services.